Terminal Aerodrome Forecast
Issued by NWS Shreveport, LA

Home | Current Version | Previous Version | Text Only | Print | Product List | Glossary On
Versions: 1 2 3 4 5 6 7 8 9 10 11 12 13 14 15 16 17
000
FTUS44 KSHV 022300
TAFSHV
TAF
KSHV 022330Z 0300/0324 07005KT 1SM BR OVC004
      TEMPO 0300/0304 3SM -DZ BR OVC002
     FM030600 12004KT 1/2SM FG OVC002
      TEMPO 0311/0315 4SM BR BKN008
     FM031500 19006KT P6SM BKN015
     FM032100 20008KT P6SM SCT020=

USA.gov is the U.S. government's official web portal to all federal, state and local government web resources and services.